New Bern, NC

10:11 AM EST on February 13, 2016 (GMT -0500)
Craven County Regional | | Change Station
CLOSE
Current Station
Airport
Location: New Bern,
Elevation: 16 ft
Nearby Weather Stations
Active Advisory: Flood Warning Active Notice: Local Storm Report

Elev 16 ft 35.07 °N, 77.05 °W | Updated 17 minutes ago

Clear
Clear
33 °F
Feels Like 22 °F
N
17
Wind Variable Wind from NW
Gusts 24 mph

Today
High -- | Low -- °F
--% Chance of Precip.
Yesterday
High -- | Low -- °F
Precip. -- in
Pressure 30.26 in
Visibility 10.0 miles
Clouds Clear
Windchill 22 °F
Dew Point 21 °F
Humidity 61%
Rainfall 0.00 in
Snow Depth Not available.
6:56 AM 5:48 PM
Waxing Crescent, 31% visible
METAR KEWN 131454Z 32015G21KT 10SM CLR 01/M06 A3026 RMK AO2 SLP247 T00061061 51033
Pressure 30.26 in
Visibility 10.0 miles
Clouds Clear
Windchill 22 °F
Dew Point 21 °F
Humidity 61%
Rainfall 0.00 in
Snow Depth Not available.
6:56 AM 5:48 PM
Waxing Crescent, 31% visible
METAR KEWN 131454Z 32015G21KT 10SM CLR 01/M06 A3026 RMK AO2 SLP247 T00061061 51033

10-Day Weather Forecast

Almanac

Astronomy

Feb. 13, 2016 Rise Set
Actual Time
Civil Twilight
Nautical Twilight
Astronomical Twilight
Moon
Length of Visible Light
Length of Day
Tomorrow will be .
, % of the Moon is Illuminated

Today's Extremes

State Highs State Lows

Community

WunderPhotos

Upload Photos

1,892,575 photos uploaded!

WunderBlog® & News

Nearby

Air Quality

  Air Quality AQ Index Pollutant
Not available.

Snow Depth

Station Depth Elevation

Earthquake Activity

City Distance Mag. Time & Date
Minimum magnitude displayed is 2.5.

Coastal Water Temperatures

Place Temperature

Stations

Nearby Weather Stations

Station Location Temp. Windchill Dew Point Humidity Wind Precip. Elev Updated Type
                   

Watches & Warnings

Flood Warning
Issued: 8:31 PM EST Feb. 12, 2016 – National Weather Service

The Flood Warning continues for
the Neuse River at Fort Barnwell.
* Until further notice... or until the warning is cancelled.
* At 7 PM Friday the stage was 12.8 feet.
* Minor flooding is occurring, and the river has been holding steady
over the last 24 hours.
* Flood stage is 12.5 feet.



Lat... Lon 3537 7735 3531 7725 3528 7721 3522 7726
          3527 7734 3532 7739